Toledo, Iowa
Current Conditions -  °F | °C
As of 8:22 PM on Friday 19 Dec 2014 (Local Time) from KMIW Reporting Station
Overcast Overcast  
Wind Chill: -6°   Ceiling: 1400
Heat Index: -2°   Visibility: 8mi
Dew Point: -4°   Wind: 9mph
Humidity: 85%   Direction: 150°SSE
Pressure: 30.19"   Gusts: NA
Location:  42°N, 92.58°W
Report Text: KMIW 200222Z AUTO 15008KT 8SM BKN014 OVC035 M02/M04 A3019 RMK AO2 T10171039
Loading
Personal Weather Stations






























Interactive Weather Map New forecast layout! Learn more

10-Day Weather Forecast

Advertisements
Track Severe Weather on mobile